createdAt,value
2022-11-22T00:00:18.699Z,6.8
2022-11-22T00:03:20.653Z,4.4
2022-11-22T00:06:22.685Z,6.9
2022-11-22T00:09:24.594Z,6.9
2022-11-22T00:12:26.556Z,5.9
2022-11-22T00:15:28.504Z,5.2
2022-11-22T00:18:30.492Z,4.1
2022-11-22T00:21:32.432Z,6.8
2022-11-22T00:24:34.407Z,7.6
2022-11-22T00:27:36.399Z,4.4
2022-11-22T00:30:38.321Z,6.3
2022-11-22T00:33:40.292Z,6.8
2022-11-22T00:36:42.252Z,3.7
2022-11-22T00:39:44.186Z,5.4
2022-11-22T00:42:46.147Z,5.5
2022-11-22T00:45:48.141Z,5.3
2022-11-22T00:48:50.090Z,7
2022-11-22T00:51:52.054Z,5.8
2022-11-22T00:54:55.100Z,5.8
2022-11-22T00:57:55.986Z,9.8
2022-11-22T01:00:57.976Z,7.6
2022-11-22T01:03:59.907Z,7
2022-11-22T01:07:01.959Z,6.4
2022-11-22T01:10:03.861Z,9
2022-11-22T01:13:05.809Z,6
2022-11-22T01:16:10.632Z,6.7
2022-11-22T01:19:12.593Z,5.5
2022-11-22T01:22:14.552Z,6.7
2022-11-22T01:25:16.491Z,6.9
2022-11-22T01:28:18.440Z,8
2022-11-22T01:31:20.428Z,5.7
2022-11-22T01:34:22.372Z,7.7
2022-11-22T01:37:24.519Z,7.2
2022-11-22T01:40:26.295Z,6.3
2022-11-22T01:43:28.317Z,5
2022-11-22T01:46:30.268Z,8.3
2022-11-22T01:49:32.404Z,7.7
2022-11-22T01:52:34.445Z,11.2
2022-11-22T01:55:36.147Z,8
2022-11-22T01:58:38.151Z,11
2022-11-22T02:01:40.167Z,6.5
2022-11-22T02:04:42.019Z,6.6
2022-11-22T02:07:44.050Z,8.2
2022-11-22T02:10:45.962Z,9.5
2022-11-22T02:13:47.920Z,6
2022-11-22T02:16:49.878Z,7.8
2022-11-22T02:19:51.882Z,7.3
2022-11-22T02:22:53.849Z,5.7
2022-11-22T02:25:55.768Z,9.7
2022-11-22T02:28:57.737Z,10.2
2022-11-22T02:31:59.711Z,6.9
2022-11-22T02:35:01.666Z,11.1
2022-11-22T02:38:03.626Z,8.3
2022-11-22T02:41:05.591Z,8.4
2022-11-22T02:44:07.571Z,8.6
2022-11-22T02:47:09.559Z,10.2
2022-11-22T02:50:11.472Z,9.2
2022-11-22T02:53:13.432Z,8.6
2022-11-22T02:56:15.440Z,13
2022-11-22T02:59:17.396Z,9.8
2022-11-22T03:02:19.296Z,11.7
2022-11-22T03:05:21.284Z,12.1
2022-11-22T03:08:23.273Z,8.8
2022-11-22T03:11:25.240Z,12.1
2022-11-22T03:14:27.160Z,13.6
2022-11-22T03:17:29.125Z,12.1
2022-11-22T03:20:31.096Z,11.2
2022-11-22T03:23:33.093Z,12.5
2022-11-22T03:26:35.042Z,11.2
2022-11-22T03:29:36.983Z,11.6
2022-11-22T03:32:38.986Z,11.7
2022-11-22T03:35:40.967Z,9.8
2022-11-22T03:38:42.928Z,15.4
2022-11-22T03:41:44.861Z,11.5
2022-11-22T03:44:46.849Z,10.4
2022-11-22T03:47:48.805Z,12.2
2022-11-22T03:50:50.767Z,11.1
2022-11-22T03:53:52.704Z,15.3
2022-11-22T03:56:54.654Z,13.6
2022-11-22T03:59:56.652Z,16.4
2022-11-22T04:02:58.572Z,10.1
2022-11-22T04:06:00.554Z,17.3
2022-11-22T04:09:02.743Z,14.7
2022-11-22T04:12:04.499Z,12.1
2022-11-22T04:15:06.418Z,12.2
2022-11-22T04:18:08.419Z,12.4
2022-11-22T04:21:10.375Z,13.5
2022-11-22T04:24:12.309Z,11.6
2022-11-22T04:27:14.286Z,12.1
2022-11-22T04:30:20.385Z,13.8
2022-11-22T04:33:18.188Z,13.8
2022-11-22T04:36:20.185Z,13.1
2022-11-22T04:39:22.128Z,16.5
2022-11-22T04:42:24.097Z,15.7
2022-11-22T04:45:26.049Z,13
2022-11-22T04:48:28.015Z,16.6
2022-11-22T04:51:30.021Z,11.7
2022-11-22T04:54:31.933Z,11.1
2022-11-22T04:57:33.896Z,13.7
2022-11-22T05:00:35.914Z,13.3
2022-11-22T05:03:37.855Z,12.3
2022-11-22T05:06:39.823Z,13.5
2022-11-22T05:09:41.789Z,14.1
2022-11-22T05:12:43.748Z,14.7
2022-11-22T05:15:45.719Z,16.4
2022-11-22T05:18:47.760Z,15
2022-11-22T05:21:49.576Z,10.9
2022-11-22T05:24:51.551Z,15.9
2022-11-22T05:27:53.556Z,16
2022-11-22T05:30:55.464Z,15.7
2022-11-22T05:33:57.437Z,18.5
2022-11-22T05:36:59.383Z,16.8
2022-11-22T05:40:01.355Z,17.9
2022-11-22T05:43:03.352Z,15.1
2022-11-22T05:46:05.279Z,11.3
2022-11-22T05:49:07.267Z,12.7
2022-11-22T05:52:09.294Z,12.1
2022-11-22T05:55:11.192Z,12
2022-11-22T05:58:13.165Z,14.7
2022-11-22T06:01:15.123Z,13.7
2022-11-22T06:04:17.063Z,12.6
2022-11-22T06:07:19.061Z,10.6
2022-11-22T06:10:20.972Z,13.7
2022-11-22T06:13:22.961Z,15.3
2022-11-22T06:16:24.913Z,13.7
2022-11-22T06:19:26.891Z,10
2022-11-22T06:22:28.821Z,12.4
2022-11-22T06:25:30.784Z,11.4
2022-11-22T06:28:32.735Z,15.6
2022-11-22T06:31:34.694Z,11.5
2022-11-22T06:34:36.665Z,10.6
2022-11-22T06:37:38.625Z,13.1
2022-11-22T06:40:40.641Z,12.3
2022-11-22T06:43:48.207Z,13.2
2022-11-22T06:46:44.553Z,13.3
2022-11-22T06:49:46.564Z,15.6
2022-11-22T06:52:48.453Z,16.1
2022-11-22T06:55:51.396Z,15.6
2022-11-22T06:58:52.385Z,12.1
2022-11-22T07:01:54.367Z,15.3
2022-11-22T07:05:23.729Z,13
2022-11-22T07:08:04.700Z,17.6
2022-11-22T07:11:00.242Z,15.5
2022-11-22T07:14:07.402Z,12.2
2022-11-22T07:17:04.144Z,13.5
2022-11-22T07:20:06.098Z,14.7
2022-11-22T07:23:08.087Z,16.4
2022-11-22T07:26:10.067Z,13.7
2022-11-22T07:29:12.008Z,14.5
2022-11-22T07:32:13.970Z,15.9
2022-11-22T07:35:15.894Z,13
2022-11-22T07:38:17.841Z,17.7
2022-11-22T07:41:19.861Z,10.6
2022-11-22T07:44:21.775Z,13.1
2022-11-22T07:47:23.757Z,16.4
2022-11-22T07:50:25.716Z,19.1
2022-11-22T07:53:27.679Z,13.3
2022-11-22T07:56:29.675Z,14.9
2022-11-22T07:59:31.883Z,14.1
2022-11-22T08:02:33.617Z,20.3
2022-11-22T08:05:35.562Z,18.1
2022-11-22T08:08:37.517Z,18.5
2022-11-22T08:11:39.477Z,15.4
2022-11-22T08:14:41.474Z,14
2022-11-22T08:17:43.495Z,10.2
2022-11-22T08:20:45.403Z,9.7
2022-11-22T08:23:47.336Z,12.2
2022-11-22T08:26:49.290Z,12
2022-11-22T08:29:51.251Z,10.5
2022-11-22T08:32:53.220Z,12
2022-11-22T08:35:55.219Z,10.3
2022-11-22T08:38:57.149Z,9
2022-11-22T08:41:59.108Z,13.8
2022-11-22T08:45:01.074Z,8.7
2022-11-22T08:48:03.029Z,11
2022-11-22T08:51:04.991Z,10.7
2022-11-22T08:54:06.942Z,10.8
2022-11-22T08:57:08.914Z,11.1
2022-11-22T09:00:10.919Z,7.9
2022-11-22T09:03:12.832Z,11.3
2022-11-22T09:09:37.150Z,8
2022-11-22T09:12:18.817Z,13.5
2022-11-22T09:15:20.692Z,8.9
2022-11-22T09:18:22.664Z,11.2
2022-11-22T09:21:24.616Z,8.7
2022-11-22T09:24:26.593Z,13
2022-11-22T09:27:28.541Z,10
2022-11-22T09:30:30.495Z,9.6
2022-11-22T09:33:32.503Z,11.3
2022-11-22T09:36:34.598Z,9.2
2022-11-22T09:39:36.399Z,8.4
2022-11-22T09:42:38.367Z,12.8
2022-11-22T09:45:40.368Z,5.4
2022-11-22T09:48:42.338Z,12.6
2022-11-22T09:51:44.264Z,8.1
2022-11-22T09:54:46.263Z,7
2022-11-22T09:57:48.230Z,8
2022-11-22T10:00:52.336Z,9.4
2022-11-22T10:03:52.172Z,11
2022-11-22T10:06:54.114Z,8
2022-11-22T10:09:56.109Z,13.2
2022-11-22T10:12:58.051Z,10.1
2022-11-22T10:16:00.026Z,9.8
2022-11-22T10:19:02.013Z,7.8
2022-11-22T10:22:03.928Z,6.9
2022-11-22T10:25:05.907Z,6
2022-11-22T10:28:07.872Z,8.1
2022-11-22T10:31:09.832Z,7
2022-11-22T10:34:11.811Z,6.9
2022-11-22T10:37:13.801Z,12.7
2022-11-22T10:40:15.750Z,5.2
2022-11-22T10:43:17.674Z,8.9
2022-11-22T10:46:19.686Z,6.6
2022-11-22T10:49:21.632Z,6.7
2022-11-22T10:52:23.607Z,8.5
2022-11-22T10:55:25.568Z,5.9
2022-11-22T10:58:27.533Z,8.4
2022-11-22T11:01:29.531Z,7.1
2022-11-22T11:04:31.468Z,6.9
2022-11-22T11:07:33.515Z,5.2
2022-11-22T11:10:35.626Z,7.3
2022-11-22T11:13:37.436Z,9.7
2022-11-22T11:16:39.371Z,6.4
2022-11-22T11:19:41.354Z,7.2
2022-11-22T11:23:13.509Z,8
2022-11-22T11:25:45.264Z,8.8
2022-11-22T11:28:47.229Z,11.2
2022-11-22T11:31:49.173Z,10.7
2022-11-22T11:34:51.196Z,6.8
2022-11-22T11:37:53.126Z,5.7
2022-11-22T11:40:55.087Z,8.3
2022-11-22T11:43:57.039Z,8.7
2022-11-22T11:46:59.013Z,7.5
2022-11-22T11:50:00.976Z,7.3
2022-11-22T11:53:02.945Z,7.6
2022-11-22T11:56:04.896Z,7.3
2022-11-22T11:59:06.860Z,9.4
2022-11-22T12:02:08.835Z,6.8
2022-11-22T12:05:10.776Z,7.2
2022-11-22T12:08:12.780Z,8.3
2022-11-22T12:11:14.711Z,4.7
2022-11-22T12:14:20.571Z,5.4
2022-11-22T12:17:18.633Z,7.2
2022-11-22T12:20:20.597Z,9
2022-11-22T12:23:22.566Z,8.4
2022-11-22T12:26:24.553Z,7.7
2022-11-22T12:29:26.542Z,8.2
2022-11-22T12:32:28.494Z,5.9
2022-11-22T12:35:30.464Z,5.1
2022-11-22T12:38:32.470Z,6.2
2022-11-22T12:41:34.643Z,7.8
2022-11-22T12:44:36.378Z,6.8
2022-11-22T12:47:38.384Z,7.1
2022-11-22T12:50:40.382Z,11.9
2022-11-22T12:53:42.320Z,3.5
2022-11-22T12:56:44.284Z,7.3
2022-11-22T12:59:46.258Z,6
2022-11-22T13:02:48.168Z,9.2
2022-11-22T13:05:50.181Z,6.5
2022-11-22T13:08:54.764Z,7
2022-11-22T13:11:54.070Z,8.4
2022-11-22T13:14:56.007Z,10.5
2022-11-22T13:17:57.972Z,5.2
2022-11-22T13:20:59.952Z,6.6
2022-11-22T13:24:01.929Z,5
2022-11-22T13:27:03.856Z,8.6
2022-11-22T13:30:05.800Z,6.8
2022-11-22T13:33:07.754Z,3.6
2022-11-22T13:36:09.715Z,4.6
2022-11-22T13:39:11.725Z,5.4
2022-11-22T13:42:13.685Z,7
2022-11-22T13:45:15.601Z,4.3
2022-11-22T13:48:17.583Z,6.2
2022-11-22T13:51:19.553Z,5.4
2022-11-22T13:54:21.572Z,5.6
2022-11-22T13:57:23.480Z,4.4
2022-11-22T14:00:25.428Z,6
2022-11-22T14:03:27.510Z,6.2
2022-11-22T14:06:29.398Z,4.9
2022-11-22T14:09:31.343Z,2.3
2022-11-22T14:12:33.297Z,2.6
2022-11-22T14:15:35.251Z,6.4
2022-11-22T14:18:37.220Z,7.6
2022-11-22T14:21:39.198Z,6
2022-11-22T14:24:41.166Z,3.6
2022-11-22T14:27:43.160Z,5.2
2022-11-22T14:30:45.120Z,5.4
2022-11-22T14:33:47.120Z,5.5
2022-11-22T14:36:49.046Z,4.2
2022-11-22T14:39:51.025Z,5
2022-11-22T14:42:52.976Z,6.8
2022-11-22T14:45:54.949Z,7.5
2022-11-22T14:48:56.914Z,9.7
2022-11-22T14:51:58.874Z,4.7
2022-11-22T14:55:00.838Z,5
2022-11-22T14:58:02.807Z,4.7
2022-11-22T15:01:04.812Z,4.2
2022-11-22T15:09:08.729Z,4.4
2022-11-22T15:09:09.419Z,6.3
2022-11-22T15:10:10.703Z,4.9
2022-11-22T15:13:12.631Z,5.6
2022-11-22T15:58:42.130Z,3.6
2022-11-22T16:01:44.128Z,3.7
2022-11-22T16:04:46.056Z,2
2022-11-22T16:07:48.148Z,2.9
2022-11-22T16:10:49.971Z,3.9
2022-11-22T16:13:51.928Z,3.2
2022-11-22T16:16:53.876Z,2.8
2022-11-22T16:19:55.861Z,3.5
2022-11-22T16:22:57.806Z,3.2
2022-11-22T16:25:59.787Z,3
2022-11-22T16:29:01.704Z,3.5
2022-11-22T16:32:03.674Z,2
2022-11-22T16:35:27.864Z,2
2022-11-22T16:38:07.582Z,2.3
2022-11-22T16:41:09.548Z,2.6
2022-11-22T16:44:11.509Z,4.5
2022-11-22T16:47:13.492Z,3
2022-11-22T16:50:15.459Z,3.2
2022-11-22T16:53:17.454Z,4.8
2022-11-22T16:56:19.399Z,4.9
2022-11-22T16:59:21.373Z,2.1
2022-11-22T17:02:23.380Z,2.5
2022-11-22T17:05:25.335Z,2.2
2022-11-22T17:08:27.271Z,2.5
2022-11-22T17:11:29.250Z,1.1
2022-11-22T17:14:31.363Z,3.7
2022-11-22T17:17:33.202Z,2.7
2022-11-22T17:20:35.146Z,2.2
2022-11-22T17:23:37.123Z,2.7
2022-11-22T17:26:39.068Z,2.1
2022-11-22T17:29:51.058Z,2.9
2022-11-22T17:32:42.983Z,3.3
2022-11-22T17:35:44.959Z,4.7
2022-11-22T17:38:46.952Z,3.2
2022-11-22T17:41:48.886Z,1.9
2022-11-22T17:44:50.847Z,2.7
2022-11-22T17:47:52.816Z,2.3
2022-11-22T17:50:54.799Z,4.3
2022-11-22T17:53:56.750Z,4.2
2022-11-22T17:56:58.705Z,2.7
2022-11-22T18:00:00.685Z,2.2
2022-11-22T18:03:06.805Z,2.8
2022-11-22T18:06:04.659Z,2.4
2022-11-22T18:09:06.561Z,3.6
2022-11-22T18:12:08.574Z,3.5
2022-11-22T18:15:10.491Z,3.9
2022-11-22T18:18:27.229Z,5
2022-11-22T18:21:17.319Z,3.6
2022-11-22T18:24:16.408Z,3.7
2022-11-22T18:27:18.378Z,2.7
2022-11-22T18:30:20.390Z,3.9
2022-11-22T18:33:22.335Z,3.3
2022-11-22T18:36:53.803Z,3
2022-11-22T18:39:26.260Z,2.8
2022-11-22T18:42:28.243Z,3.2
2022-11-22T18:45:30.227Z,2.9
2022-11-22T18:48:32.178Z,3.5
2022-11-22T18:51:34.127Z,4.9
2022-11-22T18:54:36.247Z,5.4
2022-11-22T18:57:38.090Z,4.5
2022-11-22T19:00:40.100Z,6.5
2022-11-22T19:03:42.002Z,4.8
2022-11-22T19:06:43.959Z,5.8
2022-11-22T19:09:45.982Z,6.4
2022-11-22T19:12:47.917Z,4.8
2022-11-22T19:15:49.880Z,4.2
2022-11-22T19:18:51.813Z,4.3
2022-11-22T19:21:53.779Z,4.3
2022-11-22T19:24:55.756Z,2.7
2022-11-22T19:27:57.706Z,4.7
2022-11-22T19:30:59.674Z,5.4
2022-11-22T19:34:01.620Z,4.4
2022-11-22T19:37:03.591Z,5.4
2022-11-22T19:40:05.547Z,3.5
2022-11-22T19:43:10.089Z,4.3
2022-11-22T19:46:09.460Z,6.3
2022-11-22T19:49:11.419Z,5.5
2022-11-22T19:52:13.389Z,4.3
2022-11-22T19:55:15.341Z,5.2
2022-11-22T19:58:17.299Z,4.3
2022-11-22T20:01:19.393Z,4.5
2022-11-22T20:04:21.217Z,5.5
2022-11-22T20:07:23.193Z,7.6
2022-11-22T20:10:25.548Z,5
2022-11-22T20:13:27.110Z,5.6
2022-11-22T20:16:29.060Z,9.1
2022-11-22T20:19:34.141Z,5.8
2022-11-22T20:22:33.022Z,5.8
2022-11-22T20:25:34.988Z,6
2022-11-22T20:28:36.954Z,5.5
2022-11-22T20:31:38.944Z,6.3
2022-11-22T20:34:40.883Z,8.4
2022-11-22T20:37:42.856Z,6
2022-11-22T20:40:44.831Z,6.8
2022-11-22T20:43:46.806Z,6.3
2022-11-22T20:46:48.757Z,4.8
2022-11-22T20:49:50.848Z,6.4
2022-11-22T20:52:52.682Z,5.6
2022-11-22T20:55:54.690Z,8
2022-11-22T20:58:56.642Z,8.4
2022-11-22T21:01:58.611Z,5.5
2022-11-22T21:05:00.597Z,8
2022-11-22T21:08:05.132Z,5.6
2022-11-22T21:11:04.512Z,5.9
2022-11-22T21:14:06.489Z,8
2022-11-22T21:17:35.756Z,4.5
2022-11-22T21:20:10.410Z,7.2
2022-11-22T21:23:12.388Z,6.9
2022-11-22T21:26:14.351Z,8.4
2022-11-22T21:29:16.919Z,8.7
2022-11-22T21:32:18.298Z,7.1
2022-11-22T21:35:20.266Z,10.1
2022-11-22T21:38:24.668Z,7.1
2022-11-22T21:41:39.164Z,7.1
2022-11-22T21:44:26.178Z,7.6
2022-11-22T21:47:28.153Z,8.9
2022-11-22T21:50:30.104Z,8.7
2022-11-22T21:53:32.063Z,12.9
2022-11-22T21:56:34.020Z,9.7
2022-11-22T21:59:36.239Z,6.9
2022-11-22T22:02:37.927Z,6.5
2022-11-22T22:05:39.903Z,9
2022-11-22T22:08:41.861Z,6.9
2022-11-22T22:11:43.821Z,8.6
2022-11-22T22:14:45.786Z,12.2
2022-11-22T22:17:47.736Z,6.4
2022-11-22T22:20:49.747Z,7.4
2022-11-22T22:23:51.715Z,9.1
2022-11-22T22:26:53.674Z,10.7
2022-11-22T22:29:55.626Z,6.4
2022-11-22T22:32:57.561Z,5.1
2022-11-22T22:35:59.549Z,6.6
2022-11-22T22:39:01.501Z,5.5
2022-11-22T22:42:03.468Z,5.4
2022-11-22T22:45:05.435Z,7.6
2022-11-22T22:48:07.423Z,6.7
2022-11-22T22:51:09.410Z,8.1
2022-11-22T22:54:11.347Z,5.9
2022-11-22T22:57:13.364Z,5.2
2022-11-22T23:00:15.268Z,6.1
2022-11-22T23:03:17.310Z,7.7
2022-11-22T23:06:19.229Z,3.6
2022-11-22T23:09:21.210Z,5.6
2022-11-22T23:12:23.176Z,5.9
2022-11-22T23:15:44.059Z,8.2
2022-11-22T23:18:27.072Z,6.3
2022-11-22T23:21:29.039Z,4.9
2022-11-22T23:24:31.047Z,5.4
2022-11-22T23:27:33.005Z,5.9
2022-11-22T23:30:34.968Z,8.7
2022-11-22T23:33:36.951Z,6.4
2022-11-22T23:36:40.839Z,6.7
2022-11-22T23:39:40.832Z,7.6
2022-11-22T23:42:42.813Z,5.6
2022-11-22T23:45:44.760Z,2.8
2022-11-22T23:48:46.725Z,5.6
2022-11-22T23:51:48.707Z,6.4
2022-11-22T23:54:50.670Z,7.7
2022-11-22T23:57:52.664Z,6.1
